Time;durP1;ratioP1;P1;durP2;ratioP2;P2;SDS_P1;SDS_P2;PMS_P1;PMS_P2;Temp;Humidity;BMP_temperature;BMP_pressure;BME280_temperature;BME280_humidity;BME280_pressure;Samples;Min_cycle;Max_cycle;Signal;HPM_P1;HPM_P2
2024/01/06 00:01:29;;;;;;;65.25;33.70;;;9.60;99.90;;;;;;5033065;28;20475;-76
2024/01/06 00:03:55;;;;;;;58.28;31.10;;;9.60;99.90;;;;;;5031946;28;20022;-75
2024/01/06 00:06:21;;;;;;;65.20;32.55;;;9.60;99.90;;;;;;5032834;28;20104;-75
2024/01/06 00:08:53;;;;;;;58.72;30.92;;;9.60;99.90;;;;;;5033513;28;20030;-73
2024/01/06 00:11:20;;;;;;;55.00;29.58;;;9.60;99.90;;;;;;5031594;28;20112;-76
2024/01/06 00:13:46;;;;;;;53.85;26.33;;;9.60;99.90;;;;;;5034735;28;20114;-75
2024/01/06 00:16:11;;;;;;;57.05;28.55;;;9.60;99.90;;;;;;5033786;28;20066;-74
2024/01/06 00:18:37;;;;;;;58.30;28.95;;;9.70;99.90;;;;;;5036285;28;20024;-76
2024/01/06 00:21:03;;;;;;;60.38;27.88;;;9.70;99.90;;;;;;5035573;28;20044;-76
2024/01/06 00:23:28;;;;;;;46.72;25.75;;;9.70;99.90;;;;;;5040017;28;20552;-75
2024/01/06 00:25:54;;;;;;;52.08;27.40;;;9.70;99.90;;;;;;5030624;28;20481;-74
2024/01/06 00:28:20;;;;;;;58.90;27.65;;;9.70;99.90;;;;;;5032325;28;20488;-75
2024/01/06 00:30:45;;;;;;;55.33;26.08;;;9.70;99.90;;;;;;5033822;28;20097;-75
2024/01/06 00:33:12;;;;;;;48.90;25.08;;;9.70;99.90;;;;;;5038384;28;20037;-75
2024/01/06 00:35:38;;;;;;;55.90;27.73;;;9.70;99.90;;;;;;5030878;28;20034;-75
2024/01/06 00:38:03;;;;;;;49.83;24.67;;;9.70;99.90;;;;;;5033646;28;20033;-75
2024/01/06 00:40:29;;;;;;;49.83;23.65;;;9.70;99.90;;;;;;5039412;28;20025;-75
2024/01/06 00:42:55;;;;;;;45.67;25.15;;;9.80;99.90;;;;;;5037226;28;20059;-75
2024/01/06 00:45:22;;;;;;;55.10;24.85;;;9.80;99.90;;;;;;5037476;28;20024;-72
2024/01/06 00:47:47;;;;;;;48.83;25.10;;;9.70;99.90;;;;;;5040127;28;20036;-75
2024/01/06 00:50:13;;;;;;;52.97;25.65;;;9.80;99.90;;;;;;5036040;28;20359;-75
2024/01/06 00:52:39;;;;;;;54.70;25.58;;;9.70;99.90;;;;;;5041469;28;20474;-75
2024/01/06 00:55:04;;;;;;;51.35;26.13;;;9.70;99.90;;;;;;5036511;28;20512;-76
2024/01/06 00:57:30;;;;;;;53.10;26.15;;;9.70;99.90;;;;;;5043934;28;20370;-75
2024/01/06 00:59:56;;;;;;;49.03;25.27;;;9.80;99.90;;;;;;5039996;28;20028;-75
2024/01/06 01:02:21;;;;;;;43.10;24.67;;;9.70;99.90;;;;;;5040833;28;20623;-76
2024/01/06 01:04:47;;;;;;;47.05;25.67;;;9.70;99.90;;;;;;5041130;28;20407;-75
2024/01/06 01:07:13;;;;;;;45.53;22.65;;;9.70;99.90;;;;;;5040526;28;20029;-73
2024/01/06 01:09:38;;;;;;;45.65;23.70;;;9.70;99.90;;;;;;5038516;28;21103;-76
2024/01/06 01:12:04;;;;;;;41.80;24.05;;;9.70;99.90;;;;;;5039019;28;20453;-76
2024/01/06 01:14:30;;;;;;;44.08;24.00;;;9.70;99.90;;;;;;5034886;28;20057;-75
2024/01/06 01:16:56;;;;;;;48.45;25.58;;;9.70;99.90;;;;;;5042107;28;20114;-73
2024/01/06 01:19:21;;;;;;;49.20;25.33;;;9.70;99.90;;;;;;5033888;28;20486;-75
2024/01/06 01:21:47;;;;;;;46.22;24.27;;;9.60;99.90;;;;;;5038474;28;20534;-75
2024/01/06 01:24:13;;;;;;;38.72;21.80;;;9.70;99.90;;;;;;5041906;28;20440;-76
2024/01/06 01:26:38;;;;;;;41.72;22.20;;;9.60;99.90;;;;;;5035701;28;20029;-75
2024/01/06 01:29:04;;;;;;;40.05;19.98;;;9.60;99.90;;;;;;5038003;28;20504;-74
2024/01/06 01:31:30;;;;;;;41.15;20.75;;;9.60;99.90;;;;;;5043457;28;21067;-76
2024/01/06 01:33:55;;;;;;;39.88;19.98;;;9.50;99.90;;;;;;5040662;28;20437;-76
2024/01/06 01:36:21;;;;;;;41.80;21.73;;;9.50;99.90;;;;;;5042860;28;20552;-75
2024/01/06 01:38:47;;;;;;;43.10;21.83;;;9.50;99.90;;;;;;5037702;28;20034;-76
2024/01/06 01:41:13;;;;;;;44.22;21.95;;;9.40;99.90;;;;;;5037315;28;20032;-75
2024/01/06 01:43:38;;;;;;;37.90;21.13;;;9.50;99.90;;;;;;5034240;28;20021;-73
2024/01/06 01:46:04;;;;;;;37.40;22.38;;;9.50;99.90;;;;;;5038373;28;20025;-75
2024/01/06 01:48:33;;;;;;;43.08;23.85;;;9.40;99.90;;;;;;5036364;28;20479;-75
2024/01/06 01:50:59;;;;;;;42.50;23.83;;;9.40;99.90;;;;;;5036503;28;20034;-75
2024/01/06 01:53:26;;;;;;;46.30;24.52;;;9.40;99.90;;;;;;5037481;28;20033;-74
2024/01/06 01:55:52;;;;;;;43.17;23.08;;;9.40;99.90;;;;;;5036429;28;20470;-76
2024/01/06 01:58:18;;;;;;;40.55;22.70;;;9.40;99.90;;;;;;5040262;28;20025;-76
2024/01/06 02:00:44;;;;;;;49.03;23.48;;;9.40;99.90;;;;;;5039809;28;20033;-75
2024/01/06 02:03:12;;;;;;;43.45;22.98;;;9.50;99.90;;;;;;5037317;28;20024;-75
2024/01/06 02:05:38;;;;;;;40.67;22.17;;;9.40;99.90;;;;;;5039514;28;20049;-76
2024/01/06 02:08:05;;;;;;;43.55;22.98;;;9.40;99.90;;;;;;5042164;28;20053;-75
2024/01/06 02:10:31;;;;;;;41.28;22.55;;;9.40;99.90;;;;;;5034147;28;20432;-75
2024/01/06 02:12:56;;;;;;;46.33;24.95;;;9.40;99.90;;;;;;5043498;28;20033;-76
2024/01/06 02:15:22;;;;;;;46.53;23.58;;;9.30;99.90;;;;;;5043816;28;20022;-76
2024/01/06 02:17:48;;;;;;;42.95;22.80;;;9.30;99.90;;;;;;5042750;28;20090;-75
2024/01/06 02:20:16;;;;;;;39.28;21.25;;;9.30;99.90;;;;;;5042240;28;20039;-74
2024/01/06 02:22:41;;;;;;;43.00;22.60;;;9.30;99.90;;;;;;5042206;28;20025;-75
2024/01/06 02:25:12;;;;;;;39.95;21.70;;;9.20;99.90;;;;;;5042458;28;20389;-75
2024/01/06 02:27:39;;;;;;;44.15;23.30;;;9.20;99.90;;;;;;5043222;28;20082;-75
2024/01/06 02:30:06;;;;;;;42.90;21.27;;;9.20;99.90;;;;;;5048153;28;20061;-75
2024/01/06 02:32:32;;;;;;;42.13;20.50;;;9.20;99.90;;;;;;5050136;28;20501;-75
2024/01/06 02:34:57;;;;;;;38.70;21.98;;;9.20;99.90;;;;;;5046908;28;20017;-75
2024/01/06 02:37:23;;;;;;;40.92;21.92;;;9.20;99.90;;;;;;5042945;28;20032;-75
2024/01/06 02:39:49;;;;;;;43.63;22.25;;;9.20;99.90;;;;;;5046688;28;20649;-76
2024/01/06 02:42:14;;;;;;;41.72;22.27;;;9.20;99.90;;;;;;5048585;28;20416;-75
2024/01/06 02:44:40;;;;;;;42.42;22.25;;;9.20;99.90;;;;;;5048160;28;20495;-74
2024/01/06 02:47:06;;;;;;;42.13;21.98;;;9.20;99.90;;;;;;5048388;28;20025;-75
2024/01/06 02:49:31;;;;;;;41.45;23.25;;;9.20;99.90;;;;;;5038008;28;20073;-75
2024/01/06 02:51:57;;;;;;;42.78;22.35;;;9.10;99.90;;;;;;5016913;28;20048;-73
2024/01/06 02:54:23;;;;;;;41.70;21.50;;;9.10;99.90;;;;;;5022867;28;20041;-76
2024/01/06 02:56:48;;;;;;;39.03;21.70;;;9.10;99.90;;;;;;5034519;28;20032;-76
2024/01/06 02:59:14;;;;;;;42.25;22.35;;;9.10;99.90;;;;;;5037347;28;20420;-75
2024/01/06 03:01:40;;;;;;;42.45;21.23;;;9.10;99.90;;;;;;5036029;28;20055;-77
2024/01/06 03:04:05;;;;;;;43.50;23.38;;;9.00;99.90;;;;;;5032889;28;20047;-74
2024/01/06 03:06:31;;;;;;;38.10;20.42;;;9.00;99.90;;;;;;5034452;28;20401;-75
2024/01/06 03:08:57;;;;;;;41.00;21.80;;;9.00;99.90;;;;;;5031970;28;20531;-75
2024/01/06 03:11:22;;;;;;;36.47;20.80;;;9.00;99.90;;;;;;5032562;28;20827;-76
2024/01/06 03:13:48;;;;;;;36.85;20.27;;;9.00;99.90;;;;;;5035798;28;20044;-75
2024/01/06 03:16:14;;;;;;;34.40;19.70;;;8.90;99.90;;;;;;5039278;28;20025;-75
2024/01/06 03:18:39;;;;;;;36.35;20.40;;;8.90;99.90;;;;;;5039238;28;20112;-76
2024/01/06 03:21:05;;;;;;;32.15;17.63;;;9.00;99.90;;;;;;5034952;28;20498;-72
2024/01/06 03:23:31;;;;;;;35.65;19.38;;;8.90;99.90;;;;;;5031736;28;20494;-75
2024/01/06 03:25:56;;;;;;;29.02;17.50;;;8.90;99.90;;;;;;5035814;28;20052;-75
2024/01/06 03:28:22;;;;;;;28.02;17.42;;;8.90;99.90;;;;;;5039080;28;20107;-75
2024/01/06 03:30:48;;;;;;;33.47;17.65;;;8.90;99.90;;;;;;5030184;28;20029;-76
2024/01/06 03:33:14;;;;;;;32.10;16.83;;;8.90;99.90;;;;;;5035236;28;20037;-75
2024/01/06 03:35:39;;;;;;;27.35;16.55;;;8.90;99.90;;;;;;5034922;28;20049;-76
2024/01/06 03:38:05;;;;;;;27.98;16.20;;;8.80;99.90;;;;;;5030935;28;20056;-75
2024/01/06 03:40:31;;;;;;;27.90;15.52;;;8.90;99.90;;;;;;5034213;28;20096;-75
2024/01/06 03:42:56;;;;;;;29.88;16.45;;;8.80;99.90;;;;;;5035168;28;20041;-73
2024/01/06 03:45:22;;;;;;;26.05;16.17;;;8.80;99.90;;;;;;5032703;28;20429;-76
2024/01/06 03:47:47;;;;;;;24.55;15.63;;;8.70;99.90;;;;;;5036522;28;20522;-76
2024/01/06 03:50:13;;;;;;;25.13;15.63;;;8.70;99.90;;;;;;5037850;28;20522;-75
2024/01/06 03:52:39;;;;;;;25.73;14.88;;;8.70;99.90;;;;;;5042253;28;20142;-76
2024/01/06 03:55:05;;;;;;;24.55;15.10;;;8.70;99.90;;;;;;5043255;28;20104;-76
2024/01/06 03:57:31;;;;;;;23.65;14.07;;;8.70;99.90;;;;;;5043591;28;20108;-77
2024/01/06 03:59:57;;;;;;;23.33;14.60;;;8.70;99.90;;;;;;5045535;28;20612;-75
2024/01/06 04:02:23;;;;;;;25.77;15.73;;;8.70;99.90;;;;;;5046395;28;20028;-75
2024/01/06 04:04:49;;;;;;;22.00;14.63;;;8.60;99.90;;;;;;5044654;28;20021;-76
2024/01/06 04:07:15;;;;;;;23.38;14.85;;;8.70;99.90;;;;;;5039297;28;20030;-76
2024/01/06 04:09:43;;;;;;;26.92;16.35;;;8.70;99.90;;;;;;5045703;28;20021;-76
2024/01/06 04:12:09;;;;;;;24.70;14.75;;;8.60;99.90;;;;;;5040053;28;20112;-76
2024/01/06 04:14:35;;;;;;;23.10;14.88;;;8.70;99.90;;;;;;5043592;28;20108;-76
2024/01/06 04:17:00;;;;;;;26.55;15.43;;;8.70;99.90;;;;;;5050640;28;20029;-75
2024/01/06 04:19:26;;;;;;;24.52;14.90;;;8.70;99.90;;;;;;5050167;28;20033;-76
2024/01/06 04:21:52;;;;;;;23.45;13.60;;;8.70;99.90;;;;;;5042476;28;20393;-75
2024/01/06 04:24:18;;;;;;;20.90;12.18;;;8.70;99.90;;;;;;5038708;28;20436;-75
2024/01/06 04:26:44;;;;;;;18.83;12.25;;;8.60;99.90;;;;;;5040891;28;20056;-75
2024/01/06 04:29:11;;;;;;;18.85;11.60;;;8.60;99.90;;;;;;5044823;28;20028;-76
2024/01/06 04:31:37;;;;;;;18.95;12.02;;;8.60;99.90;;;;;;5040136;28;20104;-76
2024/01/06 04:34:03;;;;;;;16.80;11.13;;;8.50;99.90;;;;;;5044360;28;20047;-75
2024/01/06 04:36:29;;;;;;;21.65;12.98;;;8.50;99.90;;;;;;5044009;28;20072;-75
2024/01/06 04:38:55;;;;;;;18.80;11.27;;;8.50;99.90;;;;;;5035080;28;20685;-75
2024/01/06 04:41:21;;;;;;;19.27;11.88;;;8.50;99.90;;;;;;5041445;28;20060;-76
2024/01/06 04:43:47;;;;;;;19.55;12.00;;;8.50;99.90;;;;;;5043478;28;20086;-76
2024/01/06 04:46:12;;;;;;;17.80;11.77;;;8.50;99.90;;;;;;5050185;28;20108;-75
2024/01/06 04:48:40;;;;;;;17.50;11.63;;;8.50;99.90;;;;;;5035375;28;20030;-75
2024/01/06 04:51:09;;;;;;;18.48;12.27;;;8.50;99.90;;;;;;5043634;28;20089;-76
2024/01/06 04:53:36;;;;;;;19.70;12.40;;;8.50;99.90;;;;;;5046075;28;20084;-74
2024/01/06 04:56:02;;;;;;;18.20;11.95;;;8.50;99.90;;;;;;5041115;28;20018;-76
2024/01/06 04:58:27;;;;;;;22.73;13.23;;;8.50;99.90;;;;;;5036936;28;20021;-75
2024/01/06 05:00:53;;;;;;;18.65;12.05;;;8.60;99.90;;;;;;5039562;28;20025;-76
2024/01/06 05:03:19;;;;;;;19.77;12.23;;;8.60;99.90;;;;;;5036602;28;20399;-75
2024/01/06 05:05:45;;;;;;;18.75;12.65;;;8.50;99.90;;;;;;5043741;28;20012;-76
2024/01/06 05:08:10;;;;;;;20.27;12.10;;;8.50;99.90;;;;;;5043617;28;20104;-74
2024/01/06 05:10:36;;;;;;;17.23;11.57;;;8.50;99.90;;;;;;5047870;28;20024;-76
2024/01/06 05:13:02;;;;;;;19.90;12.98;;;8.50;99.90;;;;;;5041325;28;20048;-74
2024/01/06 05:15:28;;;;;;;18.08;11.93;;;8.40;99.90;;;;;;5038736;28;20036;-76
2024/01/06 05:17:53;;;;;;;14.35;10.80;;;8.40;99.90;;;;;;5040985;28;20107;-75
2024/01/06 05:20:19;;;;;;;17.25;12.40;;;8.40;99.90;;;;;;5040080;28;20107;-75
2024/01/06 05:22:44;;;;;;;21.00;13.07;;;8.40;99.90;;;;;;5039952;28;20307;-75
2024/01/06 05:25:10;;;;;;;16.85;12.23;;;8.40;99.90;;;;;;5041553;28;20470;-76
2024/01/06 05:27:36;;;;;;;17.98;11.50;;;8.40;99.90;;;;;;5047928;28;20025;-76
2024/01/06 05:30:02;;;;;;;17.77;12.25;;;8.40;99.90;;;;;;5047701;28;20479;-75
2024/01/06 05:32:28;;;;;;;22.05;13.20;;;8.50;99.90;;;;;;5044146;28;20028;-75
2024/01/06 05:34:53;;;;;;;19.05;12.52;;;8.40;99.90;;;;;;5053211;28;20036;-76
2024/01/06 05:37:19;;;;;;;19.23;11.77;;;8.40;99.90;;;;;;5045651;28;20451;-75
2024/01/06 05:39:44;;;;;;;17.42;11.80;;;8.40;99.90;;;;;;5052651;28;20784;-75
2024/01/06 05:42:16;;;;;;;16.65;12.05;;;8.40;99.90;;;;;;5042226;28;20382;-76
2024/01/06 05:44:43;;;;;;;18.73;12.65;;;8.30;99.90;;;;;;5049346;28;20410;-76
2024/01/06 05:47:09;;;;;;;18.58;12.20;;;8.30;99.90;;;;;;5047579;28;20025;-75
2024/01/06 05:49:34;;;;;;;17.60;11.93;;;8.20;99.90;;;;;;5038205;28;20389;-76
2024/01/06 05:52:00;;;;;;;16.52;11.30;;;8.20;99.90;;;;;;5044266;28;20029;-75
2024/01/06 05:54:26;;;;;;;19.45;11.77;;;8.20;99.90;;;;;;5042237;28;20414;-75
2024/01/06 05:56:51;;;;;;;19.92;11.50;;;8.20;99.90;;;;;;5043902;28;20049;-75
2024/01/06 05:59:17;;;;;;;16.25;10.27;;;8.10;99.90;;;;;;5043126;28;20449;-72
2024/01/06 06:01:43;;;;;;;15.20;9.95;;;8.10;99.90;;;;;;5042795;28;20022;-75
2024/01/06 06:04:12;;;;;;;15.23;10.90;;;8.10;99.90;;;;;;5043418;28;20101;-73
2024/01/06 06:06:38;;;;;;;17.15;10.68;;;8.10;99.90;;;;;;5042055;28;20056;-75
2024/01/06 06:09:06;;;;;;;19.08;10.80;;;8.10;99.90;;;;;;5052371;28;20438;-75
2024/01/06 06:11:33;;;;;;;13.52;9.88;;;8.10;99.90;;;;;;5053168;28;20024;-75
2024/01/06 06:13:59;;;;;;;14.48;10.07;;;8.10;99.90;;;;;;5041543;28;20045;-76
2024/01/06 06:16:25;;;;;;;15.57;10.55;;;8.10;99.90;;;;;;5045901;28;20025;-76
2024/01/06 06:18:50;;;;;;;16.42;11.40;;;8.10;99.90;;;;;;5043242;28;20112;-75
2024/01/06 06:21:16;;;;;;;15.80;10.20;;;8.10;99.90;;;;;;5044109;28;20100;-76
2024/01/06 06:23:41;;;;;;;17.08;11.38;;;8.10;99.90;;;;;;5046148;28;20497;-76
2024/01/06 06:26:08;;;;;;;16.95;11.85;;;8.10;99.90;;;;;;5040502;28;20458;-75
2024/01/06 06:28:34;;;;;;;15.95;11.07;;;8.10;99.90;;;;;;5045796;28;20101;-75
2024/01/06 06:31:01;;;;;;;14.52;10.38;;;8.10;99.90;;;;;;5046156;28;20421;-76
2024/01/06 06:33:27;;;;;;;16.33;11.48;;;8.10;99.90;;;;;;5044666;28;20099;-75
2024/01/06 06:35:53;;;;;;;17.05;11.48;;;8.00;99.90;;;;;;5043902;28;20466;-76
2024/01/06 06:38:18;;;;;;;16.75;10.90;;;8.10;99.90;;;;;;5046678;28;20060;-75
2024/01/06 06:40:44;;;;;;;13.52;9.18;;;8.10;99.90;;;;;;5046122;28;20489;-75
2024/01/06 06:43:10;;;;;;;16.73;10.88;;;8.10;99.90;;;;;;5046322;28;20022;-76
2024/01/06 06:45:35;;;;;;;15.93;10.70;;;8.10;99.90;;;;;;5046579;28;20419;-76
2024/01/06 06:48:01;;;;;;;17.75;10.18;;;8.10;99.90;;;;;;5041916;28;20493;-75
2024/01/06 06:50:27;;;;;;;16.10;11.05;;;8.00;99.90;;;;;;5049834;28;20021;-76
2024/01/06 06:52:53;;;;;;;17.63;10.50;;;8.10;99.90;;;;;;5047488;28;20477;-76
2024/01/06 06:55:19;;;;;;;17.70;9.98;;;8.00;99.90;;;;;;5041375;28;20107;-76
2024/01/06 06:57:45;;;;;;;13.07;9.02;;;8.00;99.90;;;;;;5043042;28;20018;-75
2024/01/06 07:00:11;;;;;;;15.70;9.10;;;8.10;99.90;;;;;;5040035;28;20033;-73
2024/01/06 07:02:37;;;;;;;15.85;8.98;;;8.10;99.90;;;;;;5042049;28;20096;-76
2024/01/06 07:05:06;;;;;;;14.93;9.40;;;8.10;99.90;;;;;;5041073;28;20112;-76
2024/01/06 07:07:33;;;;;;;13.95;9.55;;;8.20;99.90;;;;;;5042248;28;20025;-73
2024/01/06 07:10:00;;;;;;;13.57;9.68;;;8.10;99.90;;;;;;5038781;28;20024;-76
2024/01/06 07:12:27;;;;;;;11.45;8.85;;;8.10;99.90;;;;;;5039391;28;20022;-75
2024/01/06 07:14:53;;;;;;;12.85;9.35;;;8.10;99.90;;;;;;5043192;28;20025;-76
2024/01/06 07:17:18;;;;;;;12.05;8.57;;;8.10;99.90;;;;;;5040441;28;20025;-74
2024/01/06 07:19:45;;;;;;;10.48;8.40;;;8.00;99.90;;;;;;5045613;28;20025;-76
2024/01/06 07:22:11;;;;;;;14.65;8.77;;;8.00;99.90;;;;;;5044560;28;20028;-76
2024/01/06 07:24:36;;;;;;;10.68;8.23;;;8.00;99.90;;;;;;5035944;28;20374;-76
2024/01/06 07:27:06;;;;;;;11.30;8.50;;;7.70;99.90;;;;;;5039860;28;20056;-76
2024/01/06 07:29:31;;;;;;;12.45;9.20;;;7.80;99.90;;;;;;5041087;28;20012;-73
2024/01/06 07:31:57;;;;;;;13.48;9.52;;;7.80;99.90;;;;;;5044442;28;20086;-75
2024/01/06 07:34:23;;;;;;;13.90;9.70;;;7.80;99.90;;;;;;5040545;28;20533;-76
2024/01/06 07:36:49;;;;;;;17.48;10.52;;;7.80;99.90;;;;;;5043174;28;20101;-74
2024/01/06 07:39:15;;;;;;;13.60;9.60;;;7.80;99.90;;;;;;5037796;28;20112;-77
2024/01/06 07:41:40;;;;;;;13.10;9.85;;;7.70;99.90;;;;;;5043264;28;20476;-76
2024/01/06 07:44:06;;;;;;;14.55;10.32;;;7.70;99.90;;;;;;5046892;28;20025;-76
2024/01/06 07:46:32;;;;;;;15.55;10.45;;;7.70;99.90;;;;;;5047517;28;20110;-75
2024/01/06 07:48:58;;;;;;;12.60;9.57;;;7.70;99.90;;;;;;5043453;28;20025;-76
2024/01/06 07:51:24;;;;;;;15.02;9.30;;;7.60;99.90;;;;;;5039368;28;20112;-75
2024/01/06 07:53:50;;;;;;;11.50;8.15;;;7.60;99.90;;;;;;5044667;28;20033;-76
2024/01/06 07:56:16;;;;;;;13.68;9.25;;;7.60;99.90;;;;;;5043817;28;20031;-76
2024/01/06 07:58:42;;;;;;;12.88;8.90;;;7.60;99.90;;;;;;5043115;28;20120;-75
2024/01/06 08:01:08;;;;;;;13.32;9.02;;;7.60;99.90;;;;;;5042653;28;20025;-75
2024/01/06 08:03:34;;;;;;;13.07;8.45;;;7.50;99.90;;;;;;5044150;28;20041;-75
2024/01/06 08:05:59;;;;;;;8.90;6.97;;;7.60;99.90;;;;;;5043813;28;20016;-75
2024/01/06 08:08:26;;;;;;;14.15;8.80;;;7.60;99.90;;;;;;5046936;28;20025;-75
2024/01/06 08:10:52;;;;;;;13.63;8.75;;;7.60;99.90;;;;;;5044311;28;20029;-75
2024/01/06 08:13:18;;;;;;;12.65;8.07;;;7.60;99.90;;;;;;5040645;28;20037;-76
2024/01/06 08:15:43;;;;;;;12.25;8.90;;;7.60;99.90;;;;;;5043124;28;20017;-77
2024/01/06 08:18:09;;;;;;;13.18;9.20;;;7.60;99.90;;;;;;5048684;28;20051;-76
2024/01/06 08:20:34;;;;;;;12.13;8.35;;;7.70;99.90;;;;;;5041300;28;20386;-75
2024/01/06 08:23:00;;;;;;;12.05;8.05;;;7.70;99.90;;;;;;5047970;28;20493;-76
2024/01/06 08:25:26;;;;;;;11.57;8.15;;;7.70;99.90;;;;;;5042184;28;20481;-75
2024/01/06 08:27:51;;;;;;;11.77;7.65;;;7.70;99.90;;;;;;5041335;28;20436;-76
2024/01/06 08:30:17;;;;;;;11.70;7.97;;;7.80;99.90;;;;;;5045158;28;20024;-75
2024/01/06 08:32:43;;;;;;;11.93;7.80;;;7.80;99.90;;;;;;5037779;28;20029;-75
2024/01/06 08:35:10;;;;;;;11.45;7.95;;;7.80;99.90;;;;;;5044921;28;20034;-76
2024/01/06 08:37:35;;;;;;;13.00;8.40;;;7.80;99.90;;;;;;5039371;28;20047;-75
2024/01/06 08:40:03;;;;;;;12.30;7.75;;;7.80;99.90;;;;;;5040623;28;20746;-75
2024/01/06 08:42:28;;;;;;;12.63;8.95;;;7.90;99.90;;;;;;5046533;28;20066;-76
2024/01/06 08:44:54;;;;;;;11.00;8.10;;;7.80;99.90;;;;;;5045576;28;20029;-76
2024/01/06 08:47:20;;;;;;;12.88;8.70;;;7.90;99.90;;;;;;5044621;28;20450;-76
2024/01/06 08:49:45;;;;;;;13.05;9.02;;;7.90;99.90;;;;;;5038341;28;20079;-76
2024/01/06 08:52:11;;;;;;;12.15;8.93;;;7.90;99.90;;;;;;5039455;28;20041;-74
2024/01/06 08:54:37;;;;;;;14.73;9.77;;;7.90;99.90;;;;;;5042427;28;20033;-75
2024/01/06 08:57:03;;;;;;;15.60;9.82;;;7.90;99.90;;;;;;5043954;28;20043;-75
2024/01/06 08:59:29;;;;;;;16.00;9.73;;;7.90;99.90;;;;;;5042167;28;20385;-73
2024/01/06 09:01:55;;;;;;;16.85;9.32;;;7.90;99.90;;;;;;5044147;28;20024;-75
2024/01/06 09:04:21;;;;;;;16.00;9.82;;;7.90;99.90;;;;;;5052280;28;20096;-76
2024/01/06 09:06:47;;;;;;;16.83;9.60;;;7.90;99.90;;;;;;5049828;28;20116;-75
2024/01/06 09:09:13;;;;;;;15.82;8.43;;;7.90;99.90;;;;;;5050134;28;20475;-75
2024/01/06 09:11:39;;;;;;;11.52;8.23;;;7.90;99.90;;;;;;5043003;28;20573;-75
2024/01/06 09:14:05;;;;;;;13.18;8.77;;;7.90;99.90;;;;;;5042182;28;20113;-76
2024/01/06 09:16:31;;;;;;;13.63;8.45;;;7.90;99.90;;;;;;5041972;28;20436;-76
2024/01/06 09:18:57;;;;;;;13.48;8.48;;;8.00;99.90;;;;;;5045280;28;20366;-76
2024/01/06 09:21:23;;;;;;;13.15;8.48;;;8.00;99.90;;;;;;5043615;28;20033;-75
2024/01/06 09:23:48;;;;;;;12.90;9.20;;;8.00;99.90;;;;;;5048183;28;20021;-76
2024/01/06 09:26:16;;;;;;;12.75;8.07;;;8.10;99.90;;;;;;5042423;28;20038;-76
2024/01/06 09:28:41;;;;;;;12.73;8.35;;;8.00;99.90;;;;;;5043133;28;20021;-76
2024/01/06 09:31:07;;;;;;;15.70;8.68;;;8.00;99.90;;;;;;5044333;28;20087;-75
2024/01/06 09:33:33;;;;;;;13.00;8.32;;;8.10;99.90;;;;;;5039207;28;20073;-74
2024/01/06 09:36:00;;;;;;;15.27;9.25;;;8.10;99.90;;;;;;5040462;28;20033;-76
2024/01/06 09:38:25;;;;;;;14.00;8.98;;;8.10;99.90;;;;;;5041596;28;20029;-76
2024/01/06 09:40:53;;;;;;;14.30;8.60;;;8.00;99.90;;;;;;5040048;28;20430;-76
2024/01/06 09:43:19;;;;;;;14.98;8.93;;;8.10;99.90;;;;;;5044506;28;20466;-75
2024/01/06 09:45:58;;;;;;;15.75;9.90;;;8.00;99.90;;;;;;5043272;28;20036;-74
2024/01/06 09:48:29;;;;;;;15.32;9.18;;;8.00;99.90;;;;;;5046607;28;20021;-72
2024/01/06 09:50:56;;;;;;;17.40;9.85;;;7.90;99.90;;;;;;5044149;28;20028;-76
2024/01/06 09:53:28;;;;;;;13.88;9.93;;;7.90;99.90;;;;;;5046511;28;20073;-76
2024/01/06 09:55:55;;;;;;;14.27;10.30;;;7.80;99.90;;;;;;5042944;28;20060;-76
2024/01/06 09:58:21;;;;;;;18.05;9.98;;;7.80;99.90;;;;;;5048763;28;20051;-74
2024/01/06 10:00:49;;;;;;;17.77;10.60;;;7.80;99.90;;;;;;5045979;28;20120;-74
2024/01/06 10:03:15;;;;;;;19.52;10.75;;;7.80;99.90;;;;;;5051687;28;20367;-76
2024/01/06 10:05:41;;;;;;;17.90;11.63;;;7.70;99.90;;;;;;5042467;28;20428;-76
2024/01/06 10:08:06;;;;;;;19.13;11.85;;;7.70;99.90;;;;;;5048513;28;20025;-75
2024/01/06 10:10:35;;;;;;;20.13;11.70;;;7.70;99.90;;;;;;5041193;28;20398;-76
2024/01/06 10:13:01;;;;;;;18.83;11.00;;;7.80;99.90;;;;;;5047957;28;20032;-75
2024/01/06 10:15:27;;;;;;;17.75;11.35;;;7.80;99.90;;;;;;5044502;28;20029;-75
2024/01/06 10:17:54;;;;;;;20.48;12.40;;;7.90;99.90;;;;;;5045960;28;20021;-75
2024/01/06 10:20:20;;;;;;;23.52;11.93;;;7.90;99.90;;;;;;5043608;28;20441;-77
2024/01/06 10:22:46;;;;;;;14.98;10.27;;;7.90;99.90;;;;;;5043507;28;20087;-76
2024/01/06 10:25:12;;;;;;;20.52;11.13;;;7.90;99.90;;;;;;5047587;28;20029;-74
2024/01/06 10:27:39;;;;;;;17.85;11.27;;;7.90;99.90;;;;;;5045460;28;20417;-76
2024/01/06 10:30:09;;;;;;;14.50;10.63;;;7.90;99.90;;;;;;5040051;28;20144;-75
2024/01/06 10:32:36;;;;;;;16.17;10.57;;;7.80;99.90;;;;;;5051627;28;20025;-76
2024/01/06 10:35:03;;;;;;;14.98;10.10;;;7.90;99.90;;;;;;5039646;28;20041;-77
2024/01/06 10:37:29;;;;;;;19.35;11.35;;;7.90;99.90;;;;;;5046875;28;20013;-76
2024/01/06 10:40:13;;;;;;;17.55;10.50;;;7.80;99.90;;;;;;5036958;28;20040;-75
2024/01/06 10:42:41;;;;;;;17.92;11.18;;;7.80;99.90;;;;;;5040468;28;20021;-75
2024/01/06 10:45:09;;;;;;;17.98;9.95;;;7.80;99.90;;;;;;5043647;28;20043;-75
2024/01/06 10:47:36;;;;;;;13.70;10.48;;;7.80;99.90;;;;;;5042220;28;20025;-76
2024/01/06 10:50:02;;;;;;;15.25;10.77;;;7.80;99.90;;;;;;5047489;28;20040;-73
2024/01/06 10:52:28;;;;;;;16.65;11.50;;;7.80;99.90;;;;;;5045593;28;20453;-73
2024/01/06 10:54:55;;;;;;;13.88;10.45;;;7.80;99.90;;;;;;5040564;28;20025;-71
2024/01/06 10:57:21;;;;;;;15.02;11.55;;;7.80;99.90;;;;;;5044443;28;20025;-74
2024/01/06 10:59:50;;;;;;;17.02;11.90;;;7.80;99.90;;;;;;5047343;28;20486;-74
2024/01/06 11:02:16;;;;;;;17.20;10.70;;;7.80;99.90;;;;;;5053070;28;20039;-72
2024/01/06 11:04:50;;;;;;;13.80;10.32;;;7.70;99.90;;;;;;5045360;28;20035;-74
2024/01/06 11:07:19;;;;;;;16.85;10.82;;;7.60;99.90;;;;;;5044314;28;20032;-75
2024/01/06 11:09:52;;;;;;;16.70;11.40;;;7.60;99.90;;;;;;5046688;28;20041;-74
2024/01/06 11:12:18;;;;;;;16.00;10.95;;;7.60;99.90;;;;;;5046039;28;20036;-74
2024/01/06 11:14:45;;;;;;;17.23;11.07;;;7.60;99.90;;;;;;5039738;28;20553;-73
2024/01/06 11:17:11;;;;;;;18.10;11.55;;;7.60;99.90;;;;;;5043596;28;20023;-74
2024/01/06 11:19:40;;;;;;;15.32;10.95;;;7.70;99.90;;;;;;5051980;28;20400;-73
2024/01/06 11:22:18;;;;;;;16.10;11.43;;;7.70;99.90;;;;;;5047805;28;20087;-74
2024/01/06 11:24:50;;;;;;;15.85;10.57;;;7.60;99.90;;;;;;5044122;28;20029;-72
2024/01/06 11:27:21;;;;;;;;;;;7.70;99.90;;;;;;5039011;28;20036;-75
2024/01/06 11:29:48;;;;;;;16.60;12.27;;;7.70;99.90;;;;;;5042497;28;19909;-76
2024/01/06 11:32:42;;;;;;;12.95;9.93;;;7.60;99.90;;;;;;5039834;28;20029;-76
2024/01/06 11:35:12;;;;;;;16.70;10.35;;;7.60;99.90;;;;;;5047099;28;20588;-76
2024/01/06 11:37:40;;;;;;;14.20;10.00;;;7.60;99.90;;;;;;5041640;28;20023;-75
2024/01/06 11:40:21;;;;;;;18.98;10.93;;;7.60;99.90;;;;;;5043446;28;20371;-76
2024/01/06 11:42:48;;;;;;;15.15;11.23;;;7.50;99.90;;;;;;5042377;28;20085;-75
2024/01/06 11:45:17;;;;;;;15.13;10.18;;;7.50;99.90;;;;;;5042803;28;20470;-75
2024/01/06 11:47:48;;;;;;;17.95;11.45;;;7.60;99.90;;;;;;5041755;28;20124;-76
2024/01/06 11:50:14;;;;;;;21.08;11.13;;;7.60;99.90;;;;;;5047676;28;20168;-75
2024/01/06 11:52:40;;;;;;;16.63;11.15;;;7.50;99.90;;;;;;5045149;28;20032;-74
2024/01/06 11:55:09;;;;;;;14.95;10.20;;;7.50;99.90;;;;;;5045620;28;20028;-73
2024/01/06 11:57:35;;;;;;;15.07;11.05;;;7.40;99.90;;;;;;5036921;28;20063;-73
2024/01/06 12:00:01;;;;;;;14.85;10.98;;;7.50;99.90;;;;;;5039119;28;20044;-73
2024/01/06 12:02:28;;;;;;;17.70;11.32;;;7.40;99.90;;;;;;5041561;28;20021;-73
2024/01/06 12:04:54;;;;;;;17.80;11.75;;;7.50;99.90;;;;;;5030291;28;20029;-74
2024/01/06 12:07:24;;;;;;;16.60;10.88;;;7.50;99.90;;;;;;5040657;28;20029;-73
2024/01/06 12:10:00;;;;;;;20.35;11.23;;;7.50;99.90;;;;;;5039730;28;20478;-73
2024/01/06 12:12:25;;;;;;;18.27;11.85;;;7.40;99.90;;;;;;5045173;28;20100;-75
2024/01/06 12:14:51;;;;;;;15.98;11.60;;;7.50;99.90;;;;;;5039560;28;20502;-74
2024/01/06 12:17:17;;;;;;;18.08;11.70;;;7.60;99.90;;;;;;5038199;28;20043;-74
2024/01/06 12:19:43;;;;;;;18.20;11.48;;;7.60;99.90;;;;;;5040163;28;20032;-74
2024/01/06 12:22:14;;;;;;;18.52;11.02;;;7.60;99.90;;;;;;5042002;28;20024;-74
2024/01/06 12:24:40;;;;;;;15.60;10.82;;;7.60;99.90;;;;;;5040823;28;20116;-75
2024/01/06 12:27:09;;;;;;;17.60;11.60;;;7.50;99.90;;;;;;5037989;28;20099;-74
2024/01/06 12:29:41;;;;;;;15.98;10.48;;;7.50;99.90;;;;;;5043921;28;20112;-74
2024/01/06 12:32:07;;;;;;;16.98;10.25;;;7.40;99.90;;;;;;5041883;28;20591;-74
2024/01/06 12:34:35;;;;;;;19.77;11.13;;;7.50;99.90;;;;;;5042564;28;20030;-74
2024/01/06 12:37:04;;;;;;;16.67;10.25;;;7.50;99.90;;;;;;5045620;28;20029;-73